Mechanicsburg, IL

2:24 PM CDT on September 22, 2014 (GMT -0500)
Taylorville Municipal | Change Station
CLOSE
Current Station
Airport
Location: Taylorville,
Elevation: 623 ft
Nearby Weather Stations

Elev 623 ft 39.54 °N, 89.33 °W | Updated 9 minutes ago

Clear
Clear
68 °F
Feels Like 68 °F
N
7
Wind Variable Wind from North

Today
High -- | Low -- °F
--% Chance of Precip.
Yesterday
High -- | Low -- °F
Precip. -- in
6:45 AM 6:54 PM
Waning Crescent, 2% visible
Pressure 30.27 in
Visibility 10.0 miles
Clouds Clear
Dew Point 43 °F
Humidity 40%
Rainfall 0.00 in
Snow Depth Not available.
UV 7 out of 12
Pollen 4.90 out of 12
Ozone Good
PM2.5 Good
Flu Activity Not available.
METAR KTAZ 221915Z AUTO 01006KT 10SM CLR 20/06 A3027 RMK AO2

More Conditions Fewer Conditions

Pressure 30.27 in
Visibility 10.0 miles
Clouds Clear
Dew Point 43 °F
Humidity 40%
Rainfall 0.00 in
Snow Depth Not available.
UV 7 out of 12
Pollen 4.90 out of 12
Ozone Good
PM2.5 Good
Flu Activity Not available.
METAR KTAZ 221915Z AUTO 01006KT 10SM CLR 20/06 A3027 RMK AO2

More Conditions Fewer Conditions

10-Day Weather Forecast

Almanac

Astronomy

Sep. 22, 2014 Rise Set
Actual Time 6:45 AM CDT 6:54 PM CDT
Civil Twilight 6:18 AM CDT 7:21 PM CDT
Nautical Twilight 5:46 AM CDT 7:53 PM CDT
Astronomical Twilight 5:14 AM CDT 8:25 PM CDT
Moon 5:13 AM CDT 6:02 PM CDT
Length of Visible Light 13h 03m
Length of Day
12h 09m
Tomorrow will be 2m 36s shorter.
Waning Crescent, 2% of the Moon is Illuminated
Today
Waning Crescent
Sep 24
New
Oct 1
First Quarter
Oct 8
Full
Oct 15
Last Quarter

Today's Extremes

State Highs State Lows

Community

WunderPhotos

Upload Photos

1,755,514 photos uploaded!

WunderBlogs® & News

Nearby

Air Quality

  Air Quality AQ Index Pollutant
Yesterday Good
OZONE
Yesterday Good
PM2.5
Current Good
PM2.5
Current Good
OZONE
Monday Good
PM2.5
Tuesday Good
PM2.5
Wednesday Good
PM2.5
Thursday Good
PM2.5
Friday Good
PM2.5

Snow Depth

Station Depth Elevation
No new snow has been reported.

Earthquake Activity

City Distance Mag. Time & Date
No recent earthquake activity has been reported nearby.
Minimum magnitude displayed is 2.5.

Coastal Water Temperatures

Place Temperature
No Stations Reporting

Nearby Weather Stations